createdAt,value
2022-10-23T00:08:34.578Z,1.33
2022-10-23T00:18:36.475Z,1.38
2022-10-23T00:28:38.308Z,1.38
2022-10-23T00:38:39.984Z,1.60
2022-10-23T00:48:41.462Z,1.30
2022-10-23T00:58:42.838Z,1.70
2022-10-23T01:08:50.022Z,1.63
2022-10-23T01:18:59.065Z,1.60
2022-10-23T01:29:00.292Z,1.67
2022-10-23T01:39:05.049Z,1.65
2022-10-23T01:49:07.994Z,2.17
2022-10-23T01:59:11.575Z,1.60
2022-10-23T02:09:13.649Z,2.00
2022-10-23T02:19:24.957Z,1.80
2022-10-23T02:29:39.054Z,1.73
2022-10-23T02:39:40.475Z,1.83
2022-10-23T02:49:56.768Z,2.17
2022-10-23T03:00:12.846Z,1.52
2022-10-23T03:10:14.387Z,2.88
2022-10-23T03:20:15.800Z,1.02
2022-10-23T03:30:17.366Z,1.17
2022-10-23T03:40:18.826Z,1.35
2022-10-23T03:50:20.197Z,1.33
2022-10-23T04:00:21.836Z,1.58
2022-10-23T04:10:23.282Z,1.40
2022-10-23T04:20:24.723Z,1.30
2022-10-23T04:30:26.087Z,1.13
2022-10-23T04:40:27.611Z,1.38
2022-10-23T04:50:29.011Z,2.13
2022-10-23T05:00:30.608Z,0.90
2022-10-23T05:10:32.105Z,1.45
2022-10-23T05:20:33.728Z,0.98
2022-10-23T05:30:35.254Z,1.08
2022-10-23T05:40:36.768Z,1.58
2022-10-23T05:50:38.225Z,1.48
2022-10-23T06:00:39.631Z,1.20
2022-10-23T06:10:41.000Z,1.50
2022-10-23T06:20:42.425Z,1.48
2022-10-23T06:30:43.821Z,2.08
2022-10-23T06:40:47.376Z,1.30
2022-10-23T06:50:48.769Z,1.08
2022-10-23T07:00:50.213Z,0.82
2022-10-23T07:10:51.643Z,2.03
2022-10-23T07:20:57.655Z,1.50
2022-10-23T07:30:59.365Z,0.95
2022-10-23T07:41:00.881Z,0.70
2022-10-23T07:51:08.318Z,1.40
2022-10-23T08:01:20.348Z,0.90
2022-10-23T08:11:25.821Z,0.80
2022-10-23T08:21:27.295Z,1.27
2022-10-23T08:31:28.679Z,0.98
2022-10-23T08:41:35.237Z,0.90
2022-10-23T08:51:40.176Z,0.77
2022-10-23T09:01:49.502Z,0.98
2022-10-23T09:12:12.637Z,1.10
2022-10-23T09:22:14.019Z,1.00
2022-10-23T09:32:15.400Z,0.88
2022-10-23T09:42:23.870Z,1.00
2022-10-23T10:02:31.583Z,0.63
2022-10-23T10:12:37.581Z,0.73
2022-10-23T10:23:06.187Z,1.17
2022-10-23T10:33:55.773Z,0.90
2022-10-23T10:44:25.003Z,0.85
2022-10-23T10:54:38.309Z,0.80
2022-10-23T11:04:52.362Z,0.93
2022-10-23T11:14:53.767Z,1.17
2022-10-23T11:25:15.153Z,0.68
2022-10-23T11:35:22.460Z,0.90
2022-10-23T11:45:30.848Z,0.90
2022-10-23T11:55:32.344Z,1.00
2022-10-23T12:05:37.595Z,0.90
2022-10-23T12:15:39.051Z,0.73
2022-10-23T12:25:49.643Z,0.80
2022-10-23T12:36:03.034Z,0.90
2022-10-23T12:46:35.579Z,0.85
2022-10-23T12:56:37.150Z,1.00
2022-10-23T13:06:38.747Z,0.80
2022-10-23T13:16:40.146Z,0.85
2022-10-23T13:26:44.849Z,0.90
2022-10-23T13:36:53.449Z,1.20
2022-10-23T13:46:55.968Z,1.13
2022-10-23T13:56:57.365Z,0.80
2022-10-23T14:06:58.889Z,0.90
2022-10-23T14:17:00.291Z,0.85
2022-10-23T14:27:02.196Z,0.82
2022-10-23T14:37:08.833Z,1.33
2022-10-23T14:47:10.697Z,0.70
2022-10-23T14:57:16.442Z,0.88
2022-10-23T15:07:17.847Z,1.42
2022-10-23T15:17:19.284Z,1.08
2022-10-23T15:27:20.741Z,1.60
2022-10-23T15:37:22.313Z,1.55
2022-10-23T15:47:23.714Z,1.23
2022-10-23T15:57:26.789Z,1.17
2022-10-23T16:07:28.334Z,1.98
2022-10-23T16:17:29.851Z,1.60
2022-10-23T16:27:31.818Z,1.75
2022-10-23T16:37:33.240Z,1.20
2022-10-23T16:47:34.860Z,1.40
2022-10-23T16:57:36.422Z,2.30
2022-10-23T17:07:37.893Z,1.85
2022-10-23T17:17:39.270Z,1.92
2022-10-23T17:27:40.720Z,2.15
2022-10-23T17:37:42.277Z,2.38
2022-10-23T17:47:44.613Z,2.42
2022-10-23T17:57:58.610Z,1.90
2022-10-23T18:08:00.191Z,1.60
2022-10-23T18:18:07.655Z,1.58
2022-10-23T18:28:09.042Z,1.65
2022-10-23T18:38:10.905Z,1.40
2022-10-23T18:48:12.433Z,2.28
2022-10-23T18:58:13.877Z,1.55
2022-10-23T19:08:15.475Z,1.75
2022-10-23T19:18:16.923Z,1.83
2022-10-23T19:28:18.315Z,1.63
2022-10-23T19:38:19.678Z,1.23
2022-10-23T19:48:21.142Z,1.88
2022-10-23T19:58:22.516Z,1.58
2022-10-23T20:08:23.884Z,1.80
2022-10-23T20:18:25.866Z,1.50
2022-10-23T20:28:27.270Z,1.42
2022-10-23T20:38:28.764Z,1.60
2022-10-23T20:48:35.106Z,3.17
2022-10-23T20:58:36.499Z,1.92
2022-10-23T21:08:38.074Z,2.50
2022-10-23T21:18:46.030Z,1.73
2022-10-23T21:28:56.196Z,1.77
2022-10-23T21:39:09.100Z,2.13
2022-10-23T21:49:10.662Z,2.47
2022-10-23T21:59:13.816Z,2.55
2022-10-23T22:09:17.281Z,1.90
2022-10-23T22:19:19.396Z,1.92
2022-10-23T22:29:22.878Z,1.80
2022-10-23T22:39:24.426Z,1.77
2022-10-23T22:49:25.820Z,2.22
2022-10-23T22:59:27.302Z,2.35
2022-10-23T23:09:28.775Z,2.10
2022-10-23T23:19:30.348Z,2.08
2022-10-23T23:29:31.911Z,1.80
2022-10-23T23:39:33.394Z,2.83
2022-10-23T23:49:34.967Z,1.80
2022-10-23T23:59:37.484Z,2.30
